Main page
METAR-TAF:

METAR-TAF

Airports :

London, England

London City Airport

latitude: 51-30N, longitude: 000-03E, elevation: 5 m

Current weather observation

The report was made 23 minutes ago, at 08:50 UTC
Wind 15 kt from the East
Temperature 10°C
Humidity 76%
Pressure 1025 hPa
Visibility 10 km or more
Scattered clouds at a height of 1300 ft

METAR: EGLC 260850Z AUTO 08015KT 9999 SCT013 10/06 Q1025

Time: 10:13 (09:13 UTC)

Forecast

The report was made 1 hour and 16 minutes ago, at 07:57 UTC
Forecast valid from 26 at 09 UTC to 26 at 18 UTC
Wind 10 kt from the East/Northeast
Visibility 10 km or more
Few clouds at a height of 1200 ft
Temporary
from 26 at 09 UTC to 26 at 11 UTC
Broken clouds at a height of 900 ft

TAF: EGLC 260757Z 2609/2618 06010KT 9999 FEW012 TEMPO 2609/2611 BKN009

Weather observations and forecasts of more than 4000 airports (METAR and TAF reports).

The available stations are represented by yellow and red dots on the map.

Hover mouse over dot to see the name of the station.

Then click to see weather observations and forecasts.

To change the map : click on the green buttons with a black cross to zoom in, on the green button with a dash to zoom out, or on the green arrows for adjacent maps.


METAR-TAF: